createdAt,value
2022-09-09T00:01:38.995Z,12.48
2022-09-09T00:04:19.036Z,17.05
2022-09-09T00:06:56.187Z,9.18
2022-09-09T00:09:27.999Z,11.70
2022-09-09T00:12:15.672Z,12.10
2022-09-09T00:15:03.499Z,12.60
2022-09-09T00:17:48.802Z,15.07
2022-09-09T00:20:37.032Z,13.05
2022-09-09T00:23:26.980Z,14.10
2022-09-09T00:26:13.967Z,14.73
2022-09-09T00:28:49.605Z,14.60
2022-09-09T00:31:30.684Z,15.93
2022-09-09T00:34:24.505Z,16.98
2022-09-09T00:36:53.575Z,14.88
2022-09-09T00:39:38.033Z,12.77
2022-09-09T00:42:26.669Z,13.05
2022-09-09T00:45:02.278Z,16.00
2022-09-09T00:47:50.784Z,12.90
2022-09-09T00:50:38.865Z,11.80
2022-09-09T00:53:38.363Z,14.65
2022-09-09T00:56:15.857Z,14.63
2022-09-09T00:58:51.318Z,14.13
2022-09-09T01:01:18.892Z,16.10
2022-09-09T01:04:00.596Z,13.27
2022-09-09T01:09:33.340Z,13.18
2022-09-09T01:12:04.860Z,12.63
2022-09-09T01:17:33.984Z,15.68
2022-09-09T01:20:05.919Z,12.02
2022-09-09T01:22:45.547Z,13.23
2022-09-09T01:25:27.374Z,10.93
2022-09-09T01:27:58.512Z,11.88
2022-09-09T01:30:28.790Z,12.75
2022-09-09T01:33:01.203Z,11.65
2022-09-09T01:36:03.885Z,12.25
2022-09-09T01:38:32.621Z,13.35
2022-09-09T01:40:59.647Z,13.20
2022-09-09T01:43:27.536Z,8.23
2022-09-09T01:46:04.231Z,12.75
2022-09-09T01:48:31.313Z,10.43
2022-09-09T01:51:00.601Z,11.20
2022-09-09T01:53:27.515Z,6.75
2022-09-09T01:56:03.052Z,8.55
2022-09-09T01:58:54.085Z,11.93
2022-09-09T02:01:44.348Z,7.13
2022-09-09T02:04:30.438Z,10.98
2022-09-09T02:06:58.114Z,7.95
2022-09-09T02:09:30.525Z,9.95
2022-09-09T02:12:07.463Z,7.50
2022-09-09T02:14:47.083Z,7.10
2022-09-09T02:17:22.095Z,9.30
2022-09-09T02:19:59.366Z,9.02
2022-09-09T02:22:28.753Z,6.45
2022-09-09T02:24:59.965Z,10.73
2022-09-09T02:27:29.231Z,10.90
2022-09-09T02:30:03.060Z,10.35
2022-09-09T02:32:33.671Z,9.48
2022-09-09T02:35:16.183Z,5.47
2022-09-09T02:37:46.975Z,8.30
2022-09-09T02:40:16.326Z,8.70
2022-09-09T02:42:46.994Z,4.50
2022-09-09T02:45:17.519Z,7.57
2022-09-09T02:47:52.019Z,7.55
2022-09-09T02:50:26.439Z,7.18
2022-09-09T02:53:22.180Z,7.75
2022-09-09T02:56:06.756Z,7.03
2022-09-09T02:58:33.956Z,11.05
2022-09-09T03:01:02.250Z,6.78
2022-09-09T03:03:30.124Z,8.40
2022-09-09T03:05:57.945Z,6.22
2022-09-09T03:08:25.413Z,5.28
2022-09-09T03:10:53.170Z,7.30
2022-09-09T03:13:20.307Z,7.53
2022-09-09T03:15:49.316Z,13.93
2022-09-09T03:18:18.666Z,10.70
2022-09-09T03:20:52.004Z,9.35
2022-09-09T03:23:18.764Z,10.10
2022-09-09T03:25:52.948Z,10.85
2022-09-09T03:28:20.092Z,11.55
2022-09-09T03:30:49.952Z,6.13
2022-09-09T03:33:19.808Z,9.63
2022-09-09T03:35:50.718Z,6.93
2022-09-09T03:38:18.102Z,8.40
2022-09-09T03:40:58.539Z,14.45
2022-09-09T03:43:27.113Z,9.57
2022-09-09T03:45:57.930Z,10.18
2022-09-09T03:48:29.152Z,7.20
2022-09-09T03:50:58.808Z,8.82
2022-09-09T03:53:28.207Z,10.18
2022-09-09T03:55:56.704Z,6.90
2022-09-09T03:58:27.649Z,8.90
2022-09-09T04:01:00.032Z,9.68
2022-09-09T04:03:30.230Z,10.38
2022-09-09T04:06:03.045Z,9.07
2022-09-09T04:08:35.196Z,9.23
2022-09-09T04:11:07.839Z,8.98
2022-09-09T04:13:40.028Z,10.70
2022-09-09T04:16:14.433Z,9.95
2022-09-09T04:18:46.895Z,8.02
2022-09-09T04:21:17.189Z,13.65
2022-09-09T04:23:46.144Z,9.68
2022-09-09T04:26:15.906Z,12.60
2022-09-09T04:28:45.105Z,7.45
2022-09-09T04:31:24.751Z,12.13
2022-09-09T04:33:52.090Z,8.30
2022-09-09T04:36:20.376Z,8.93
2022-09-09T04:38:47.447Z,8.82
2022-09-09T04:41:14.561Z,8.40
2022-09-09T04:43:41.514Z,9.35
2022-09-09T04:46:10.584Z,10.60
2022-09-09T04:48:37.539Z,11.43
2022-09-09T04:51:10.433Z,9.80
2022-09-09T04:53:38.315Z,9.98
2022-09-09T04:56:06.570Z,9.20
2022-09-09T04:58:33.622Z,13.45
2022-09-09T05:01:09.812Z,9.40
2022-09-09T05:03:37.073Z,10.60
2022-09-09T05:06:05.568Z,12.15
2022-09-09T05:08:35.342Z,9.73
2022-09-09T05:11:26.735Z,8.30
2022-09-09T05:13:56.064Z,10.48
2022-09-09T05:16:23.944Z,11.50
2022-09-09T05:18:52.236Z,13.98
2022-09-09T05:21:20.884Z,12.65
2022-09-09T05:23:47.824Z,11.82
2022-09-09T05:26:17.854Z,12.77
2022-09-09T05:28:48.125Z,14.77
2022-09-09T05:31:19.347Z,13.15
2022-09-09T05:33:49.131Z,10.13
2022-09-09T05:36:18.660Z,11.40
2022-09-09T05:38:51.200Z,12.18
2022-09-09T05:41:18.908Z,12.30
2022-09-09T05:43:47.745Z,8.18
2022-09-09T05:46:19.811Z,10.45
2022-09-09T05:48:48.265Z,14.93
2022-09-09T05:51:18.280Z,9.73
2022-09-09T05:53:46.186Z,11.25
2022-09-09T05:56:15.917Z,10.25
2022-09-09T05:58:45.906Z,13.23
2022-09-09T06:01:14.930Z,15.48
2022-09-09T06:03:44.180Z,11.05
2022-09-09T06:06:21.726Z,16.40
2022-09-09T06:08:55.233Z,11.07
2022-09-09T06:11:28.100Z,8.43
2022-09-09T06:13:55.561Z,16.55
2022-09-09T06:16:29.609Z,12.10
2022-09-09T06:18:57.909Z,10.13
2022-09-09T06:21:27.206Z,11.88
2022-09-09T06:23:58.955Z,11.05
2022-09-09T06:26:31.670Z,13.65
2022-09-09T06:29:00.963Z,10.60
2022-09-09T06:31:31.605Z,11.55
2022-09-09T06:34:03.125Z,12.95
2022-09-09T06:36:35.982Z,20.10
2022-09-09T06:39:02.911Z,15.55
2022-09-09T06:41:36.177Z,13.85
2022-09-09T06:44:05.725Z,12.45
2022-09-09T06:46:34.220Z,12.23
2022-09-09T06:49:01.683Z,16.10
2022-09-09T06:51:35.136Z,12.50
2022-09-09T06:54:03.421Z,17.40
2022-09-09T06:56:35.901Z,11.75
2022-09-09T06:59:05.122Z,18.35
2022-09-09T07:01:37.364Z,18.98
2022-09-09T07:04:08.992Z,16.60
2022-09-09T07:09:11.247Z,13.55
2022-09-09T07:11:42.218Z,12.27
2022-09-09T07:14:11.732Z,10.65
2022-09-09T07:16:38.482Z,19.13
2022-09-09T07:19:08.356Z,14.32
2022-09-09T07:21:35.424Z,13.65
2022-09-09T07:24:02.706Z,13.13
2022-09-09T07:26:34.332Z,17.02
2022-09-09T07:31:32.930Z,19.73
2022-09-09T07:34:00.897Z,14.68
2022-09-09T07:36:33.420Z,13.05
2022-09-09T07:39:10.032Z,12.07
2022-09-09T07:41:48.152Z,15.95
2022-09-09T07:44:18.017Z,13.85
2022-09-09T07:46:47.349Z,10.57
2022-09-09T07:49:15.578Z,12.98
2022-09-09T07:51:45.291Z,16.35
2022-09-09T07:54:15.754Z,13.60
2022-09-09T07:56:43.586Z,15.20
2022-09-09T07:59:11.274Z,15.20
2022-09-09T08:01:41.035Z,12.90
2022-09-09T08:04:10.382Z,13.77
2022-09-09T08:06:43.583Z,12.27
2022-09-09T08:09:14.214Z,10.57
2022-09-09T08:11:41.946Z,11.88
2022-09-09T08:14:12.951Z,13.77
2022-09-09T08:16:42.859Z,11.57
2022-09-09T08:19:12.530Z,15.15
2022-09-09T08:21:44.176Z,12.80
2022-09-09T08:24:12.561Z,13.38
2022-09-09T08:26:44.725Z,12.10
2022-09-09T08:29:15.365Z,11.27
2022-09-09T08:31:45.656Z,16.73
2022-09-09T08:34:16.120Z,11.73
2022-09-09T08:36:45.561Z,12.75
2022-09-09T08:39:14.962Z,12.07
2022-09-09T08:42:01.692Z,11.40
2022-09-09T08:44:58.586Z,15.95
2022-09-09T08:47:43.842Z,14.88
2022-09-09T08:50:18.001Z,10.73
2022-09-09T08:52:53.678Z,16.67
2022-09-09T08:55:26.526Z,11.10
2022-09-09T08:57:56.202Z,11.07
2022-09-09T09:00:26.971Z,10.30
2022-09-09T09:03:02.377Z,10.90
2022-09-09T09:05:43.152Z,13.20
2022-09-09T09:08:26.122Z,10.13
2022-09-09T09:10:58.002Z,12.65
2022-09-09T09:13:36.329Z,15.75
2022-09-09T09:16:18.794Z,13.57
2022-09-09T09:18:45.681Z,13.63
2022-09-09T09:21:19.771Z,12.25
2022-09-09T09:24:01.613Z,11.50
2022-09-09T09:26:33.824Z,13.52
2022-09-09T09:29:11.200Z,12.63
2022-09-09T09:31:37.977Z,12.63
2022-09-09T09:34:09.602Z,10.57
2022-09-09T09:41:57.381Z,11.00
2022-09-09T09:44:29.861Z,13.45
2022-09-09T09:47:18.016Z,18.67
2022-09-09T09:50:03.618Z,17.75
2022-09-09T09:52:32.226Z,15.35
2022-09-09T09:55:07.513Z,16.85
2022-09-09T09:57:35.426Z,10.98
2022-09-09T10:00:14.504Z,11.80
2022-09-09T10:02:44.283Z,9.73
2022-09-09T10:05:29.089Z,12.80
2022-09-09T10:08:12.343Z,11.02
2022-09-09T10:13:50.433Z,11.65
2022-09-09T10:16:24.919Z,14.70
2022-09-09T10:19:01.156Z,12.00
2022-09-09T10:21:53.149Z,14.07
2022-09-09T10:24:37.457Z,12.85
2022-09-09T10:27:17.765Z,12.10
2022-09-09T10:30:12.472Z,11.70
2022-09-09T10:32:42.097Z,10.82
2022-09-09T10:35:20.997Z,10.25
2022-09-09T10:38:06.528Z,8.93
2022-09-09T10:40:43.298Z,12.10
2022-09-09T10:43:16.044Z,10.02
2022-09-09T10:45:49.685Z,7.80
2022-09-09T10:48:46.860Z,8.43
2022-09-09T10:51:20.982Z,6.72
2022-09-09T10:54:04.136Z,10.20
2022-09-09T10:56:32.251Z,11.13
2022-09-09T10:59:18.700Z,10.82
2022-09-09T11:02:11.508Z,6.57
2022-09-09T11:05:20.972Z,9.20
2022-09-09T11:07:54.670Z,9.23
2022-09-09T11:10:26.189Z,7.28
2022-09-09T11:15:36.076Z,8.20
2022-09-09T11:18:07.485Z,6.88
2022-09-09T11:20:35.857Z,9.30
2022-09-09T11:23:47.025Z,10.90
2022-09-09T11:26:26.604Z,8.77
2022-09-09T11:29:29.603Z,7.63
2022-09-09T11:32:33.927Z,8.50
2022-09-09T11:35:12.008Z,8.98
2022-09-09T11:37:45.381Z,8.57
2022-09-09T11:40:33.212Z,7.82
2022-09-09T11:43:29.211Z,8.43
2022-09-09T11:46:01.117Z,10.48
2022-09-09T11:48:37.785Z,8.32
2022-09-09T11:51:16.467Z,7.88
2022-09-09T11:54:22.618Z,5.53
2022-09-09T11:56:49.584Z,8.50
2022-09-09T11:59:23.776Z,7.65
2022-09-09T12:02:15.528Z,10.52
2022-09-09T12:07:17.696Z,8.07
2022-09-09T12:09:49.514Z,9.07
2022-09-09T12:12:18.377Z,9.07
2022-09-09T12:15:08.453Z,10.07
2022-09-09T12:17:49.012Z,9.25
2022-09-09T12:20:19.941Z,7.47
2022-09-09T12:23:06.096Z,10.20
2022-09-09T12:25:46.999Z,7.30
2022-09-09T12:28:21.303Z,8.57
2022-09-09T12:30:57.805Z,7.72
2022-09-09T12:33:34.809Z,6.38
2022-09-09T12:36:02.978Z,7.97
2022-09-09T12:38:39.395Z,7.90
2022-09-09T12:41:06.228Z,6.47
2022-09-09T12:43:33.295Z,5.47
2022-09-09T12:46:09.700Z,6.75
2022-09-09T12:48:42.961Z,6.30
2022-09-09T12:51:33.270Z,7.60
2022-09-09T12:54:01.679Z,6.50
2022-09-09T12:56:31.834Z,4.80
2022-09-09T12:58:59.736Z,5.93
2022-09-09T13:01:30.599Z,6.15
2022-09-09T13:04:00.780Z,3.53
2022-09-09T13:06:32.724Z,4.03
2022-09-09T13:09:01.727Z,5.22
2022-09-09T13:11:47.711Z,4.88
2022-09-09T13:14:30.061Z,5.32
2022-09-09T13:17:02.468Z,5.40
2022-09-09T13:19:46.350Z,4.40
2022-09-09T13:22:20.868Z,6.55
2022-09-09T13:25:01.356Z,3.88
2022-09-09T13:27:39.841Z,9.07
2022-09-09T13:30:41.212Z,5.00
2022-09-09T13:33:27.343Z,8.18
2022-09-09T13:36:00.003Z,8.02
2022-09-09T13:38:29.068Z,3.72
2022-09-09T13:41:22.775Z,4.45
2022-09-09T13:43:49.615Z,3.35
2022-09-09T13:46:31.145Z,2.95
2022-09-09T13:48:59.243Z,4.30
2022-09-09T13:51:47.859Z,6.35
2022-09-09T13:54:17.551Z,4.95
2022-09-09T13:56:45.019Z,6.10
2022-09-09T13:59:20.942Z,4.47
2022-09-09T14:01:48.266Z,5.57
2022-09-09T14:04:15.401Z,6.50
2022-09-09T14:06:42.836Z,7.47
2022-09-09T14:09:14.347Z,7.13
2022-09-09T14:14:10.922Z,5.85
2022-09-09T14:16:38.630Z,4.68
2022-09-09T14:19:08.538Z,6.78
2022-09-09T14:21:37.819Z,8.88
2022-09-09T14:24:06.817Z,5.30
2022-09-09T14:26:35.859Z,9.25
2022-09-09T14:29:03.148Z,6.88
2022-09-09T14:31:30.254Z,4.78
2022-09-09T14:33:56.990Z,9.65
2022-09-09T14:36:26.769Z,8.20
2022-09-09T14:38:53.466Z,7.40
2022-09-09T14:41:23.512Z,6.60
2022-09-09T14:43:51.201Z,9.95
2022-09-09T14:46:19.870Z,10.52
2022-09-09T14:48:49.399Z,7.57
2022-09-09T14:51:20.617Z,7.78
2022-09-09T14:53:47.746Z,4.95
2022-09-09T14:56:18.376Z,9.35
2022-09-09T14:58:45.794Z,6.23
2022-09-09T15:01:15.750Z,6.95
2022-09-09T15:03:44.450Z,8.38
2022-09-09T15:06:13.783Z,8.07
2022-09-09T15:08:42.739Z,8.30
2022-09-09T15:11:11.583Z,5.10
2022-09-09T15:13:40.244Z,7.90
2022-09-09T15:16:11.885Z,9.13
2022-09-09T15:18:41.205Z,8.20
2022-09-09T15:21:07.950Z,9.52
2022-09-09T15:23:40.374Z,8.48
2022-09-09T15:26:08.345Z,9.85
2022-09-09T15:28:39.034Z,7.78
2022-09-09T15:31:08.517Z,7.07
2022-09-09T15:33:37.721Z,7.65
2022-09-09T15:36:40.980Z,12.23
2022-09-09T15:39:16.778Z,15.00
2022-09-09T15:41:44.875Z,11.95
2022-09-09T15:44:14.891Z,13.05
2022-09-09T15:46:44.487Z,13.38
2022-09-09T15:49:12.434Z,15.63
2022-09-09T15:51:44.659Z,10.90
2022-09-09T15:54:23.667Z,11.02
2022-09-09T15:56:58.054Z,13.75
2022-09-09T15:59:26.437Z,11.98
2022-09-09T16:01:56.287Z,12.15
2022-09-09T16:04:27.787Z,14.52
2022-09-09T16:09:28.291Z,14.40
2022-09-09T16:12:07.318Z,16.08
2022-09-09T16:14:36.904Z,14.95
2022-09-09T16:17:04.699Z,17.95
2022-09-09T16:19:31.466Z,18.02
2022-09-09T16:22:01.144Z,14.35
2022-09-09T16:24:30.347Z,15.65
2022-09-09T16:26:57.482Z,12.63
2022-09-09T16:29:28.439Z,18.88
2022-09-09T16:31:57.749Z,13.38
2022-09-09T16:36:53.597Z,16.17
2022-09-09T16:39:21.516Z,11.25
2022-09-09T16:41:53.613Z,15.70
2022-09-09T16:44:20.440Z,11.00
2022-09-09T16:46:56.666Z,11.63
2022-09-09T16:49:26.563Z,10.00
2022-09-09T16:51:59.235Z,11.48
2022-09-09T16:54:27.990Z,8.90
2022-09-09T16:56:54.825Z,10.02
2022-09-09T16:59:23.673Z,12.70
2022-09-09T17:01:52.570Z,8.68
2022-09-09T17:04:22.397Z,10.77
2022-09-09T17:06:50.716Z,9.55
2022-09-09T17:09:20.387Z,7.65
2022-09-09T17:11:48.792Z,11.63
2022-09-09T17:14:37.087Z,8.70
2022-09-09T17:17:25.131Z,10.00
2022-09-09T17:19:55.722Z,10.60
2022-09-09T17:22:24.946Z,11.15
2022-09-09T17:24:54.512Z,8.85
2022-09-09T17:27:25.986Z,9.80
2022-09-09T17:29:55.899Z,8.52
2022-09-09T17:32:22.613Z,14.35
2022-09-09T17:34:53.347Z,8.13
2022-09-09T17:37:20.116Z,9.33
2022-09-09T17:39:47.005Z,10.27
2022-09-09T17:42:19.265Z,10.07
2022-09-09T17:44:48.341Z,8.00
2022-09-09T17:47:17.384Z,9.32
2022-09-09T17:49:47.717Z,9.98
2022-09-09T17:52:16.870Z,6.88
2022-09-09T17:54:43.765Z,9.35
2022-09-09T17:57:10.513Z,13.68
2022-09-09T17:59:42.015Z,9.80
2022-09-09T18:04:39.959Z,10.87
2022-09-09T18:07:06.657Z,9.63
2022-09-09T18:09:35.979Z,10.27
2022-09-09T18:12:05.070Z,12.45
2022-09-09T18:14:35.442Z,14.00
2022-09-09T18:17:06.238Z,9.63
2022-09-09T18:19:33.471Z,12.07
2022-09-09T18:22:05.192Z,10.02
2022-09-09T18:24:32.902Z,11.10
2022-09-09T18:27:02.901Z,11.55
2022-09-09T18:29:29.922Z,10.27
2022-09-09T18:31:59.576Z,11.82
2022-09-09T18:34:28.583Z,11.48
2022-09-09T18:36:56.140Z,12.15
2022-09-09T18:39:25.865Z,12.43
2022-09-09T18:42:00.378Z,13.48
2022-09-09T18:44:33.028Z,16.63
2022-09-09T18:47:03.381Z,14.05
2022-09-09T18:49:33.458Z,16.65
2022-09-09T18:52:08.703Z,12.23
2022-09-09T18:54:45.910Z,17.85
2022-09-09T18:57:15.380Z,17.10
2022-09-09T18:59:42.320Z,21.08
2022-09-09T19:02:13.305Z,9.65
2022-09-09T19:04:42.248Z,16.08
2022-09-09T19:07:14.168Z,16.60
2022-09-09T19:09:40.987Z,20.67
2022-09-09T19:12:10.603Z,15.25
2022-09-09T19:14:40.508Z,14.30
2022-09-09T19:17:09.970Z,13.38
2022-09-09T19:19:36.895Z,13.20
2022-09-09T19:22:06.752Z,12.20
2022-09-09T19:24:34.265Z,16.02
2022-09-09T19:27:03.060Z,14.82
2022-09-09T19:29:32.797Z,12.07
2022-09-09T19:32:49.193Z,9.57
2022-09-09T19:34:52.447Z,10.73
2022-09-09T19:37:19.666Z,10.40
2022-09-09T19:39:47.785Z,10.60
2022-09-09T19:42:17.169Z,10.25
2022-09-09T19:44:49.380Z,12.82
2022-09-09T19:47:16.693Z,9.13
2022-09-09T19:49:47.718Z,8.23
2022-09-09T19:52:15.849Z,8.05
2022-09-09T19:54:43.560Z,5.57
2022-09-09T19:57:12.478Z,9.57
2022-09-09T19:59:41.552Z,12.10
2022-09-09T20:02:16.010Z,9.73
2022-09-09T20:04:45.925Z,7.88
2022-09-09T20:07:15.239Z,7.00
2022-09-09T20:09:41.967Z,8.80
2022-09-09T20:12:11.199Z,8.63
2022-09-09T20:14:39.752Z,9.25
2022-09-09T20:17:10.377Z,10.18
2022-09-09T20:19:37.424Z,11.43
2022-09-09T20:22:06.438Z,11.68
2022-09-09T20:24:42.438Z,11.10
2022-09-09T20:27:11.673Z,9.43
2022-09-09T20:29:38.642Z,13.05
2022-09-09T20:32:08.683Z,11.10
2022-09-09T20:34:37.955Z,11.52
2022-09-09T20:37:05.977Z,20.08
2022-09-09T20:39:37.109Z,12.70
2022-09-09T20:42:04.638Z,15.50
2022-09-09T20:44:31.715Z,16.58
2022-09-09T20:47:04.300Z,15.82
2022-09-09T20:49:39.904Z,11.65
2022-09-09T20:52:08.158Z,13.65
2022-09-09T20:54:35.933Z,12.45
2022-09-09T20:57:03.062Z,13.05
2022-09-09T20:59:32.150Z,10.63
2022-09-09T21:02:02.728Z,16.65
2022-09-09T21:04:29.736Z,17.25
2022-09-09T21:07:02.506Z,11.43
2022-09-09T21:09:32.542Z,19.65
2022-09-09T21:12:01.923Z,11.18
2022-09-09T21:14:32.613Z,19.40
2022-09-09T21:17:03.215Z,13.27
2022-09-09T21:19:30.005Z,18.92
2022-09-09T21:22:00.230Z,12.15
2022-09-09T21:24:29.307Z,13.90
2022-09-09T21:27:00.731Z,13.50
2022-09-09T21:29:27.498Z,15.85
2022-09-09T21:31:56.656Z,17.83
2022-09-09T21:34:26.583Z,15.18
2022-09-09T21:36:53.752Z,15.45
2022-09-09T21:39:22.619Z,17.05
2022-09-09T21:41:49.354Z,13.35
2022-09-09T21:44:18.565Z,13.48
2022-09-09T21:46:45.403Z,14.57
2022-09-09T21:49:12.526Z,15.30
2022-09-09T21:51:41.483Z,17.55
2022-09-09T21:54:08.231Z,17.98
2022-09-09T21:56:37.464Z,19.02
2022-09-09T21:59:06.329Z,16.98
2022-09-09T22:01:33.631Z,17.17
2022-09-09T22:04:03.676Z,20.67
2022-09-09T22:06:30.474Z,18.02
2022-09-09T22:09:02.114Z,20.52
2022-09-09T22:14:01.699Z,16.30
2022-09-09T22:16:28.754Z,16.90
2022-09-09T22:18:57.663Z,19.00
2022-09-09T22:21:26.229Z,17.52
2022-09-09T22:24:04.560Z,20.63
2022-09-09T22:26:34.627Z,18.92
2022-09-09T22:29:04.045Z,20.13
2022-09-09T22:31:32.194Z,14.10
2022-09-09T22:33:59.339Z,17.95
2022-09-09T22:36:26.631Z,12.57
2022-09-09T22:38:53.432Z,16.35
2022-09-09T22:41:20.743Z,17.25
2022-09-09T22:43:51.007Z,15.35
2022-09-09T22:46:19.003Z,18.85
2022-09-09T22:48:45.813Z,18.80
2022-09-09T22:51:17.018Z,14.82
2022-09-09T22:53:45.512Z,13.35
2022-09-09T22:56:18.526Z,17.85
2022-09-09T22:58:46.405Z,12.70
2022-09-09T23:01:19.177Z,14.23
2022-09-09T23:03:47.212Z,11.48
2022-09-09T23:06:21.808Z,13.15
2022-09-09T23:08:51.991Z,10.88
2022-09-09T23:11:28.063Z,12.00
2022-09-09T23:13:56.264Z,8.50
2022-09-09T23:16:35.317Z,12.90
2022-09-09T23:19:02.102Z,9.73
2022-09-09T23:21:30.264Z,8.00
2022-09-09T23:24:00.469Z,6.75
2022-09-09T23:26:29.598Z,6.78
2022-09-09T23:28:58.475Z,5.65
2022-09-09T23:31:30.662Z,6.28
2022-09-09T23:33:59.071Z,6.13
2022-09-09T23:36:26.554Z,7.88
2022-09-09T23:38:56.128Z,8.07
2022-09-09T23:41:23.369Z,7.03
2022-09-09T23:43:52.268Z,9.57
2022-09-09T23:46:27.233Z,6.82
2022-09-09T23:48:54.922Z,7.57
2022-09-09T23:51:23.975Z,8.55
2022-09-09T23:53:53.297Z,5.50
2022-09-09T23:56:27.985Z,6.30
2022-09-09T23:58:57.293Z,6.72
